Terminal Aerodrome Forecast
Issued by NWS

Home | Current Version | Previous Version | Text Only | Print | Product List | Glossary On
Versions: 1 2 3 4 5 6 7 8 9 10 11 12 13 14 15 16 17 18 19 20 21 22 23 24 25 26 27 28 29 30 31 32 33 34 35 36 37 38 39 40 41 42 43 44 45 46
451
FTUS45 KSLC 101134
TAFOGD
TAF
KOGD 101134Z 1012/1112 16003KT 3SM HZ BCFG OVC004
      TEMPO 1012/1015 1SM BR VV002
     FM101800 31006KT 5SM HZ FEW200
     FM110300 17005KT 3SM BR BCFG FEW200=

USA.gov is the U.S. government's official web portal to all federal, state and local government web resources and services.